sensor_id;sensor_type;location;lat;lon;timestamp;pressure;altitude;pressure_sealevel;temperature;humidity
74427;BME280;62859;53.906;27.430;2023-04-07T00:01:20;1010;;;11.8;51.9
74427;BME280;62859;53.906;27.430;2023-04-07T00:06:26;1010;;;11.7;52.1
74427;BME280;62859;53.906;27.430;2023-04-07T00:11:40;1010;;;11.8;52.3
74427;BME280;62859;53.906;27.430;2023-04-07T00:16:10;1010;;;11.7;52.1
74427;BME280;62859;53.906;27.430;2023-04-07T00:21:40;1010;;;11.7;52.2
74427;BME280;62859;53.906;27.430;2023-04-07T00:26:20;1010;;;11.8;52.1
74427;BME280;62859;53.906;27.430;2023-04-07T00:31:26;1010;;;11.8;52
74427;BME280;62859;53.906;27.430;2023-04-07T00:36:18;1010;;;11.9;51.9
74427;BME280;62859;53.906;27.430;2023-04-07T00:41:22;1010;;;11.9;51.7
74427;BME280;62859;53.906;27.430;2023-04-07T00:46:40;1010;;;11.9;51.7
74427;BME280;62859;53.906;27.430;2023-04-07T00:51:32;1010;;;11.9;51.6
74427;BME280;62859;53.906;27.430;2023-04-07T00:56:40;1010;;;11.9;51.8
74427;BME280;62859;53.906;27.430;2023-04-07T01:01:33;1010;;;12;51.9
74427;BME280;62859;53.906;27.430;2023-04-07T01:06:08;1010;;;11.9;51.7
74427;BME280;62859;53.906;27.430;2023-04-07T01:11:16;1010;;;11.9;51.7
74427;BME280;62859;53.906;27.430;2023-04-07T01:16:34;1010;;;11.8;51.9
74427;BME280;62859;53.906;27.430;2023-04-07T01:21:38;1010;;;11.8;52
74427;BME280;62859;53.906;27.430;2023-04-07T01:26:31;1010;;;11.8;52.1
74427;BME280;62859;53.906;27.430;2023-04-07T01:30:58;1010;;;11.8;52.1
74427;BME280;62859;53.906;27.430;2023-04-07T01:36:14;1010;;;11.7;52.2
74427;BME280;62859;53.906;27.430;2023-04-07T01:41:32;1009.9;;;11.7;52.3
74427;BME280;62859;53.906;27.430;2023-04-07T01:46:40;1010;;;11.8;52.5
74427;BME280;62859;53.906;27.430;2023-04-07T01:51:32;1009.9;;;11.7;52.5
74427;BME280;62859;53.906;27.430;2023-04-07T01:56:14;1009.9;;;11.6;52.7
74427;BME280;62859;53.906;27.430;2023-04-07T02:01:14;1010;;;11.6;52.8
74427;BME280;62859;53.906;27.430;2023-04-07T02:06:23;1010;;;11.5;53
74427;BME280;62859;53.906;27.430;2023-04-07T02:11:40;1010;;;11.5;53
74427;BME280;62859;53.906;27.430;2023-04-07T02:16:30;1010;;;11.5;53.1
74427;BME280;62859;53.906;27.430;2023-04-07T02:21:08;1010;;;11.5;53.3
74427;BME280;62859;53.906;27.430;2023-04-07T02:26:14;1010;;;11.5;53.3
74427;BME280;62859;53.906;27.430;2023-04-07T02:31:32;1010;;;11.5;53.4
74427;BME280;62859;53.906;27.430;2023-04-07T02:36:40;1010;;;11.5;53.6
74427;BME280;62859;53.906;27.430;2023-04-07T02:41:30;1010.1;;;11.4;53.8
74427;BME280;62859;53.906;27.430;2023-04-07T02:46:14;1010.1;;;11.4;53.9
74427;BME280;62859;53.906;27.430;2023-04-07T02:51:08;1010.1;;;11.4;53.9
74427;BME280;62859;53.906;27.430;2023-04-07T02:56:22;1010.2;;;11.3;54
74427;BME280;62859;53.906;27.430;2023-04-07T03:01:32;1010.2;;;11.4;54.1
74427;BME280;62859;53.906;27.430;2023-04-07T03:06:28;1010.2;;;11.4;54
74427;BME280;62859;53.906;27.430;2023-04-07T03:11:08;1010.2;;;11.4;54
74427;BME280;62859;53.906;27.430;2023-04-07T03:16:04;1010.2;;;11.4;54.1
74427;BME280;62859;53.906;27.430;2023-04-07T03:21:32;1010.2;;;11.4;54.1
74427;BME280;62859;53.906;27.430;2023-04-07T03:26:38;1010.2;;;11.4;54.1
74427;BME280;62859;53.906;27.430;2023-04-07T03:31:32;1010.3;;;11.4;54.1
74427;BME280;62859;53.906;27.430;2023-04-07T03:36:04;1010.3;;;11.4;54.1
74427;BME280;62859;53.906;27.430;2023-04-07T03:41:14;1010.3;;;11.3;54.2
74427;BME280;62859;53.906;27.430;2023-04-07T03:46:20;1010.4;;;11.3;54.2
74427;BME280;62859;53.906;27.430;2023-04-07T03:51:40;1010.4;;;11.2;54.5
74427;BME280;62859;53.906;27.430;2023-04-07T03:56:32;1010.4;;;11.1;54.6
74427;BME280;62859;53.906;27.430;2023-04-07T04:01:08;1010.5;;;11.2;54.7
74427;BME280;62859;53.906;27.430;2023-04-07T04:06:26;1010.5;;;11.2;54.8
74427;BME280;62859;53.906;27.430;2023-04-07T04:11:32;1010.5;;;11.1;54.7
74427;BME280;62859;53.906;27.430;2023-04-07T04:16:40;1010.6;;;11.1;54.7
74427;BME280;62859;53.906;27.430;2023-04-07T04:21:32;1010.6;;;11.1;54.7
74427;BME280;62859;53.906;27.430;2023-04-07T04:26:14;1010.6;;;11.1;54.9
74427;BME280;62859;53.906;27.430;2023-04-07T04:31:14;1010.7;;;11.1;54.9
74427;BME280;62859;53.906;27.430;2023-04-07T04:36:32;1010.7;;;11.1;54.9
74427;BME280;62859;53.906;27.430;2023-04-07T04:41:40;1010.7;;;11.1;54.9
74427;BME280;62859;53.906;27.430;2023-04-07T04:46:40;1010.8;;;11.1;55
74427;BME280;62859;53.906;27.430;2023-04-07T04:50:58;1010.8;;;11.1;55
74427;BME280;62859;53.906;27.430;2023-04-07T04:56:08;1010.8;;;11.2;54.9
74427;BME280;62859;53.906;27.430;2023-04-07T05:01:30;1010.9;;;11.2;54.8
74427;BME280;62859;53.906;27.430;2023-04-07T05:06:38;1010.9;;;11.2;54.8
74427;BME280;62859;53.906;27.430;2023-04-07T05:11:28;1010.9;;;11.2;54.8
74427;BME280;62859;53.906;27.430;2023-04-07T05:16:08;1010.9;;;11.3;54.8
74427;BME280;62859;53.906;27.430;2023-04-07T05:21:14;1011;;;11.4;54.4
74427;BME280;62859;53.906;27.430;2023-04-07T05:26:28;1011;;;11.5;54.3
74427;BME280;62859;53.906;27.430;2023-04-07T05:31:38;1011;;;11.7;55.2
74427;BME280;62859;53.906;27.430;2023-04-07T05:36:30;1011;;;12.4;53.7
74427;BME280;62859;53.906;27.430;2023-04-07T05:40:58;1011.1;;;12.8;52.1
74427;BME280;62859;53.906;27.430;2023-04-07T05:45:58;1011;;;13.4;50.4
74427;BME280;62859;53.906;27.430;2023-04-07T05:51:30;1011;;;13.8;49.1
74427;BME280;62859;53.906;27.430;2023-04-07T05:56:40;1011;;;13.9;48.5
74427;BME280;62859;53.906;27.430;2023-04-07T06:01:32;1011;;;14;48.7
74427;BME280;62859;53.906;27.430;2023-04-07T06:06:10;1011.1;;;13.8;48.7
74427;BME280;62859;53.906;27.430;2023-04-07T06:11:04;1011.2;;;13.4;49.5
74427;BME280;62859;53.906;27.430;2023-04-07T06:16:30;1011.2;;;13.2;50.1
74427;BME280;62859;53.906;27.430;2023-04-07T06:21:38;1011.2;;;12.9;50.7
74427;BME280;62859;53.906;27.430;2023-04-07T06:26:30;1011.2;;;12.6;51.5
74427;BME280;62859;53.906;27.430;2023-04-07T06:31:36;1011.3;;;12.4;52.2
74427;BME280;62859;53.906;27.430;2023-04-07T06:36:19;1011.3;;;12.3;52.7
74427;BME280;62859;53.906;27.430;2023-04-07T06:41:30;1011.3;;;12.2;53.2
74427;BME280;62859;53.906;27.430;2023-04-07T06:46:38;1011.4;;;12;53.7
74427;BME280;62859;53.906;27.430;2023-04-07T06:51:32;1011.4;;;12;54
74427;BME280;62859;53.906;27.430;2023-04-07T06:56:01;1011.4;;;12;54
74427;BME280;62859;53.906;27.430;2023-04-07T07:01:14;1011.4;;;12;54.1
74427;BME280;62859;53.906;27.430;2023-04-07T07:06:08;1011.4;;;12;54.1
74427;BME280;62859;53.906;27.430;2023-04-07T07:11:38;1011.4;;;12;54.3
74427;BME280;62859;53.906;27.430;2023-04-07T07:16:38;1011.5;;;12;55.2
74427;BME280;62859;53.906;27.430;2023-04-07T07:20:58;1011.5;;;11.9;55.7
74427;BME280;62859;53.906;27.430;2023-04-07T07:26:14;1011.5;;;12;56.2
74427;BME280;62859;53.906;27.430;2023-04-07T07:31:32;1011.6;;;12.2;56
74427;BME280;62859;53.906;27.430;2023-04-07T07:36:40;1011.6;;;12.4;55.9
74427;BME280;62859;53.906;27.430;2023-04-07T07:41:32;1011.6;;;12.7;55.6
74427;BME280;62859;53.906;27.430;2023-04-07T07:45:58;1011.6;;;13;54.8
74427;BME280;62859;53.906;27.430;2023-04-07T07:51:08;1011.6;;;13.2;54.6
74427;BME280;62859;53.906;27.430;2023-04-07T07:56:16;1011.7;;;13.1;54
74427;BME280;62859;53.906;27.430;2023-04-07T08:01:38;1011.7;;;13.1;54.1
74427;BME280;62859;53.906;27.430;2023-04-07T08:06:30;1011.8;;;13.2;54.1
74427;BME280;62859;53.906;27.430;2023-04-07T08:11:14;1011.8;;;13.2;54.2
74427;BME280;62859;53.906;27.430;2023-04-07T08:16:14;1011.8;;;13.3;54
74427;BME280;62859;53.906;27.430;2023-04-07T08:21:28;1011.9;;;13.3;54
74427;BME280;62859;53.906;27.430;2023-04-07T08:26:36;1011.9;;;13.4;54
74427;BME280;62859;53.906;27.430;2023-04-07T08:31:28;1011.9;;;13.6;53.6
74427;BME280;62859;53.906;27.430;2023-04-07T08:35:58;1011.9;;;13.7;53.3
74427;BME280;62859;53.906;27.430;2023-04-07T08:41:09;1012;;;13.7;53.3
74427;BME280;62859;53.906;27.430;2023-04-07T08:46:30;1012.1;;;13.7;53.3
74427;BME280;62859;53.906;27.430;2023-04-07T08:51:41;1012.1;;;14;53.1
74427;BME280;62859;53.906;27.430;2023-04-07T08:56:31;1012.1;;;14.7;51.2
74427;BME280;62859;53.906;27.430;2023-04-07T09:00:58;1012;;;14.8;50.8
74427;BME280;62859;53.906;27.430;2023-04-07T09:06:14;1012;;;14.8;50.8
74427;BME280;62859;53.906;27.430;2023-04-07T09:11:28;1012.1;;;14.7;50.9
74427;BME280;62859;53.906;27.430;2023-04-07T09:16:38;1012.1;;;14.7;51.6
74427;BME280;62859;53.906;27.430;2023-04-07T09:21:35;1012.1;;;14.5;51.8
74427;BME280;62859;53.906;27.430;2023-04-07T09:25:58;1012.1;;;14.4;52.1
74427;BME280;62859;53.906;27.430;2023-04-07T09:31:14;1012.2;;;14.3;52.4
74427;BME280;62859;53.906;27.430;2023-04-07T09:36:32;1012.2;;;14.3;52.7
74427;BME280;62859;53.906;27.430;2023-04-07T09:41:36;1012.2;;;14.1;53.2
74427;BME280;62859;53.906;27.430;2023-04-07T09:46:30;1012.2;;;14.1;53.8
74427;BME280;62859;53.906;27.430;2023-04-07T09:51:09;1012.3;;;14.2;53.7
74427;BME280;62859;53.906;27.430;2023-04-07T09:56:08;1012.3;;;14.2;53.5
74427;BME280;62859;53.906;27.430;2023-04-07T10:01:30;1012.3;;;14.3;53.6
74427;BME280;62859;53.906;27.430;2023-04-07T10:06:38;1012.3;;;14.4;53.4
74427;BME280;62859;53.906;27.430;2023-04-07T10:11:28;1012.3;;;14.7;52.9
74427;BME280;62859;53.906;27.430;2023-04-07T10:16:14;1012.3;;;15;52.4
74427;BME280;62859;53.906;27.430;2023-04-07T10:21:14;1012.3;;;15.2;51.8
74427;BME280;62859;53.906;27.430;2023-04-07T10:26:32;1012.3;;;15.4;51.6
74427;BME280;62859;53.906;27.430;2023-04-07T10:31:40;1012.3;;;15.5;51.2
74427;BME280;62859;53.906;27.430;2023-04-07T10:36:30;1012.3;;;15.6;51.2
74427;BME280;62859;53.906;27.430;2023-04-07T10:40:58;1012.3;;;15.5;51.2
74427;BME280;62859;53.906;27.430;2023-04-07T10:46:08;1012.3;;;15.6;51.3
74427;BME280;62859;53.906;27.430;2023-04-07T10:51:14;1012.3;;;15.7;51.2
74427;BME280;62859;53.906;27.430;2023-04-07T10:57:10;1012.3;;;15.8;50.9
74427;BME280;62859;53.906;27.430;2023-04-07T11:01:30;1012.3;;;15.9;50.8
74427;BME280;62859;53.906;27.430;2023-04-07T11:06:24;1012.3;;;15.8;51
74427;BME280;62859;53.906;27.430;2023-04-07T11:11:38;1012.4;;;15.8;51.1
74427;BME280;62859;53.906;27.430;2023-04-07T11:16:37;1012.4;;;15.8;51.2
74427;BME280;62859;53.906;27.430;2023-04-07T11:21:38;1012.4;;;15.7;51.3
74427;BME280;62859;53.906;27.430;2023-04-07T11:26:35;1012.5;;;15.8;51.2
74427;BME280;62859;53.906;27.430;2023-04-07T11:31:08;1012.5;;;15.8;51.5
74427;BME280;62859;53.906;27.430;2023-04-07T11:35:59;1012.5;;;15.8;51.7
74427;BME280;62859;53.906;27.430;2023-04-07T11:41:32;1012.5;;;15.8;51.7
74427;BME280;62859;53.906;27.430;2023-04-07T11:46:50;1012.5;;;15.8;51.8
74427;BME280;62859;53.906;27.430;2023-04-07T11:51:30;1012.6;;;15.8;51.7
74427;BME280;62859;53.906;27.430;2023-04-07T11:56:16;1012.6;;;15.6;52.2
74427;BME280;62859;53.906;27.430;2023-04-07T12:01:14;1012.6;;;15.6;53
74427;BME280;62859;53.906;27.430;2023-04-07T12:06:31;1012.6;;;15.4;53.8
74427;BME280;62859;53.906;27.430;2023-04-07T12:11:47;1012.6;;;15.3;54.1
74427;BME280;62859;53.906;27.430;2023-04-07T12:16:28;1012.6;;;15.3;54.3
74427;BME280;62859;53.906;27.430;2023-04-07T12:20:58;1012.6;;;15.2;54.6
74427;BME280;62859;53.906;27.430;2023-04-07T12:26:38;1012.6;;;15.2;54.6
74427;BME280;62859;53.906;27.430;2023-04-07T12:31:36;1012.6;;;15.2;54.7
74427;BME280;62859;53.906;27.430;2023-04-07T12:36:38;1012.6;;;15.3;54.6
74427;BME280;62859;53.906;27.430;2023-04-07T12:41:38;1012.6;;;15.3;54.3
74427;BME280;62859;53.906;27.430;2023-04-07T12:45:58;1012.6;;;15.4;54.3
74427;BME280;62859;53.906;27.430;2023-04-07T12:51:14;1012.6;;;15.4;54.3
74427;BME280;62859;53.906;27.430;2023-04-07T12:56:34;1012.6;;;15.4;54.2
74427;BME280;62859;53.906;27.430;2023-04-07T13:01:42;1012.6;;;15.4;54.3
74427;BME280;62859;53.906;27.430;2023-04-07T13:06:34;1012.6;;;15.4;54.3
74427;BME280;62859;53.906;27.430;2023-04-07T13:10:58;1012.6;;;15.4;54.1
74427;BME280;62859;53.906;27.430;2023-04-07T13:16:14;1012.6;;;15.3;54.2
74427;BME280;62859;53.906;27.430;2023-04-07T13:20:58;1012.6;;;15.3;54.4
74427;BME280;62859;53.906;27.430;2023-04-07T13:26:42;1012.6;;;15.3;54.3
74427;BME280;62859;53.906;27.430;2023-04-07T13:31:34;1012.7;;;15.3;54.3
74427;BME280;62859;53.906;27.430;2023-04-07T13:35:58;1012.7;;;15.3;54.5
74427;BME280;62859;53.906;27.430;2023-04-07T13:41:14;1012.7;;;15.3;54.5
74427;BME280;62859;53.906;27.430;2023-04-07T13:46:11;1012.8;;;15.3;54.6
74427;BME280;62859;53.906;27.430;2023-04-07T13:51:42;1012.8;;;15.3;55.1
74427;BME280;62859;53.906;27.430;2023-04-07T13:56:34;1012.9;;;15.3;55.5
74427;BME280;62859;53.906;27.430;2023-04-07T14:00:58;1012.9;;;15.2;56.2
74427;BME280;62859;53.906;27.430;2023-04-07T14:06:14;1013;;;15.1;57.6
74427;BME280;62859;53.906;27.430;2023-04-07T14:11:08;1013.1;;;15;58.9
74427;BME280;62859;53.906;27.430;2023-04-07T14:16:42;1013.1;;;14.9;59.7
74427;BME280;62859;53.906;27.430;2023-04-07T14:21:32;1013.2;;;14.8;60.3
74427;BME280;62859;53.906;27.430;2023-04-07T14:25:58;1013.2;;;14.7;61
74427;BME280;62859;53.906;27.430;2023-04-07T14:30:58;1013.2;;;14.6;61.6
74427;BME280;62859;53.906;27.430;2023-04-07T14:35:58;1013.2;;;14.6;62.1
74427;BME280;62859;53.906;27.430;2023-04-07T14:41:40;1013.2;;;14.5;62.5
74427;BME280;62859;53.906;27.430;2023-04-07T14:46:32;1013.3;;;14.5;62.8
74427;BME280;62859;53.906;27.430;2023-04-07T14:51:14;1013.4;;;14.4;63.1
74427;BME280;62859;53.906;27.430;2023-04-07T14:56:14;1013.4;;;14.3;63.5
74427;BME280;62859;53.906;27.430;2023-04-07T15:00:58;1013.4;;;14.2;64
74427;BME280;62859;53.906;27.430;2023-04-07T15:06:42;1013.5;;;14;64.6
74427;BME280;62859;53.906;27.430;2023-04-07T15:11:34;1013.5;;;13.9;65.1
74427;BME280;62859;53.906;27.430;2023-04-07T15:16:09;1013.4;;;13.9;65.8
74427;BME280;62859;53.906;27.430;2023-04-07T15:21:11;1013.4;;;13.9;65.9
74427;BME280;62859;53.906;27.430;2023-04-07T15:25:58;1013.4;;;13.8;66
74427;BME280;62859;53.906;27.430;2023-04-07T15:31:42;1013.5;;;13.9;66.2
74427;BME280;62859;53.906;27.430;2023-04-07T15:36:42;1013.5;;;13.8;66.6
74427;BME280;62859;53.906;27.430;2023-04-07T15:41:08;1013.5;;;13.9;66.5
74427;BME280;62859;53.906;27.430;2023-04-07T15:46:14;1013.5;;;13.9;66.3
74427;BME280;62859;53.906;27.430;2023-04-07T15:50:58;1013.5;;;13.9;66
74427;BME280;62859;53.906;27.430;2023-04-07T15:56:42;1013.5;;;13.9;65.9
74427;BME280;62859;53.906;27.430;2023-04-07T16:01:32;1013.5;;;13.9;66.3
74427;BME280;62859;53.906;27.430;2023-04-07T16:06:08;1013.5;;;13.9;66
74427;BME280;62859;53.906;27.430;2023-04-07T16:11:14;1013.5;;;13.9;65.6
74427;BME280;62859;53.906;27.430;2023-04-07T16:16:08;1013.5;;;13.9;65.5
74427;BME280;62859;53.906;27.430;2023-04-07T16:21:42;1013.6;;;13.9;65.5
74427;BME280;62859;53.906;27.430;2023-04-07T16:26:34;1013.6;;;13.9;65.7
74427;BME280;62859;53.906;27.430;2023-04-07T16:31:08;1013.7;;;13.8;65.9
74427;BME280;62859;53.906;27.430;2023-04-07T16:36:04;1013.7;;;13.8;65.9
74427;BME280;62859;53.906;27.430;2023-04-07T16:40:58;1013.8;;;13.8;66.1
74427;BME280;62859;53.906;27.430;2023-04-07T16:46:42;1013.8;;;13.8;66.3
74427;BME280;62859;53.906;27.430;2023-04-07T16:51:34;1013.9;;;13.8;66.4
74427;BME280;62859;53.906;27.430;2023-04-07T16:56:13;1013.9;;;13.8;66.2
74427;BME280;62859;53.906;27.430;2023-04-07T17:01:04;1014;;;13.7;66.2
74427;BME280;62859;53.906;27.430;2023-04-07T17:06:04;1014;;;13.7;66
74427;BME280;62859;53.906;27.430;2023-04-07T17:11:42;1014;;;13.6;66
74427;BME280;62859;53.906;27.430;2023-04-07T17:16:34;1014.1;;;13.6;65.9
74427;BME280;62859;53.906;27.430;2023-04-07T17:21:34;1014.2;;;13.6;65.9
74427;BME280;62859;53.906;27.430;2023-04-07T17:26:14;1014.2;;;13.7;65.7
74427;BME280;62859;53.906;27.430;2023-04-07T17:30:58;1014.2;;;13.7;65.8
74427;BME280;62859;53.906;27.430;2023-04-07T17:36:42;1014.3;;;13.7;65.6
74427;BME280;62859;53.906;27.430;2023-04-07T17:41:32;1014.4;;;13.6;65.4
74427;BME280;62859;53.906;27.430;2023-04-07T17:45:56;1014.5;;;13.6;65.3
74427;BME280;62859;53.906;27.430;2023-04-07T17:50:58;1014.5;;;13.6;65.5
74427;BME280;62859;53.906;27.430;2023-04-07T17:55:58;1014.6;;;13.6;65.8
74427;BME280;62859;53.906;27.430;2023-04-07T18:01:42;1014.6;;;13.5;65.8
74427;BME280;62859;53.906;27.430;2023-04-07T18:06:22;1014.6;;;13.6;65.6
74427;BME280;62859;53.906;27.430;2023-04-07T18:11:08;1014.7;;;13.5;65.6
74427;BME280;62859;53.906;27.430;2023-04-07T18:16:04;1014.7;;;13.6;65.9
74427;BME280;62859;53.906;27.430;2023-04-07T18:20:58;1014.8;;;13.5;65.6
74427;BME280;62859;53.906;27.430;2023-04-07T18:26:40;1014.8;;;13.4;65.7
74427;BME280;62859;53.906;27.430;2023-04-07T18:31:10;1014.8;;;13.4;65.6
74427;BME280;62859;53.906;27.430;2023-04-07T18:36:08;1014.9;;;13.4;65.5
74427;BME280;62859;53.906;27.430;2023-04-07T18:41:14;1015;;;13.4;65.5
74427;BME280;62859;53.906;27.430;2023-04-07T18:46:08;1015;;;13.4;65.5
74427;BME280;62859;53.906;27.430;2023-04-07T18:51:42;1015;;;13.4;65.2
74427;BME280;62859;53.906;27.430;2023-04-07T18:56:34;1015;;;13.3;64.9
74427;BME280;62859;53.906;27.430;2023-04-07T19:00:58;1015;;;13.3;65.4
74427;BME280;62859;53.906;27.430;2023-04-07T19:05:58;1015;;;13.3;64.9
74427;BME280;62859;53.906;27.430;2023-04-07T19:10:58;1015.1;;;13.2;65
74427;BME280;62859;53.906;27.430;2023-04-07T19:16:42;1015.1;;;13.2;65
74427;BME280;62859;53.906;27.430;2023-04-07T19:21:34;1015.1;;;13.1;65.2
74427;BME280;62859;53.906;27.430;2023-04-07T19:26:08;1015.1;;;13.1;65.5
74427;BME280;62859;53.906;27.430;2023-04-07T19:31:14;1015.1;;;13.1;65.9
74427;BME280;62859;53.906;27.430;2023-04-07T19:35:58;1015.1;;;13.1;66.2
74427;BME280;62859;53.906;27.430;2023-04-07T19:41:42;1015.1;;;13.1;66.4
74427;BME280;62859;53.906;27.430;2023-04-07T19:46:34;1015.1;;;13.1;66.4
74427;BME280;62859;53.906;27.430;2023-04-07T19:51:14;1015;;;13.1;66.2
74427;BME280;62859;53.906;27.430;2023-04-07T19:56:08;1015.1;;;13.1;66
74427;BME280;62859;53.906;27.430;2023-04-07T20:01:13;1015.1;;;13.1;66
74427;BME280;62859;53.906;27.430;2023-04-07T20:06:42;1015.2;;;13;66
74427;BME280;62859;53.906;27.430;2023-04-07T20:11:40;1015.2;;;13;66
74427;BME280;62859;53.906;27.430;2023-04-07T20:16:08;1015.2;;;13;66
74427;BME280;62859;53.906;27.430;2023-04-07T20:21:14;1015.2;;;12.9;66.3
74427;BME280;62859;53.906;27.430;2023-04-07T20:26:04;1015.2;;;12.9;66.5
74427;BME280;62859;53.906;27.430;2023-04-07T20:31:40;1015.2;;;12.9;66.1
74427;BME280;62859;53.906;27.430;2023-04-07T20:36:11;1015.2;;;12.9;66.1
74427;BME280;62859;53.906;27.430;2023-04-07T20:40:58;1015.3;;;12.8;66
74427;BME280;62859;53.906;27.430;2023-04-07T20:46:14;1015.3;;;12.8;65.7
74427;BME280;62859;53.906;27.430;2023-04-07T20:51:42;1015.3;;;12.8;65.5
74427;BME280;62859;53.906;27.430;2023-04-07T20:56:42;1015.3;;;12.7;65.5
74427;BME280;62859;53.906;27.430;2023-04-07T21:01:00;1015.3;;;12.7;65.6
74427;BME280;62859;53.906;27.430;2023-04-07T21:06:14;1015.3;;;12.6;65.9
74427;BME280;62859;53.906;27.430;2023-04-07T21:11:22;1015.3;;;12.6;66.2
74427;BME280;62859;53.906;27.430;2023-04-07T21:16:08;1015.3;;;12.5;66
74427;BME280;62859;53.906;27.430;2023-04-07T21:21:42;1015.3;;;12.5;66
74427;BME280;62859;53.906;27.430;2023-04-07T21:26:34;1015.3;;;12.4;66
74427;BME280;62859;53.906;27.430;2023-04-07T21:31:18;1015.3;;;12.4;66.1
74427;BME280;62859;53.906;27.430;2023-04-07T21:36:08;1015.4;;;12.4;66.1
74427;BME280;62859;53.906;27.430;2023-04-07T21:40:58;1015.4;;;12.3;66.1
74427;BME280;62859;53.906;27.430;2023-04-07T21:46:34;1015.4;;;12.4;66
74427;BME280;62859;53.906;27.430;2023-04-07T21:51:42;1015.5;;;12.4;66.1
74427;BME280;62859;53.906;27.430;2023-04-07T21:56:34;1015.5;;;12.4;66.3
74427;BME280;62859;53.906;27.430;2023-04-07T22:01:15;1015.4;;;12.3;66.1
74427;BME280;62859;53.906;27.430;2023-04-07T22:05:58;1015.5;;;12.3;66
74427;BME280;62859;53.906;27.430;2023-04-07T22:11:22;1015.5;;;12.3;65.9
74427;BME280;62859;53.906;27.430;2023-04-07T22:16:42;1015.5;;;12.3;66
74427;BME280;62859;53.906;27.430;2023-04-07T22:21:00;1015.5;;;12.3;66
74427;BME280;62859;53.906;27.430;2023-04-07T22:26:14;1015.5;;;12.3;66
74427;BME280;62859;53.906;27.430;2023-04-07T22:31:14;1015.4;;;12.3;66
74427;BME280;62859;53.906;27.430;2023-04-07T22:36:00;1015.4;;;12.2;66.1
74427;BME280;62859;53.906;27.430;2023-04-07T22:41:42;1015.5;;;12.3;66.5
74427;BME280;62859;53.906;27.430;2023-04-07T22:46:34;1015.5;;;12.2;66.4
74427;BME280;62859;53.906;27.430;2023-04-07T22:51:14;1015.4;;;12.2;66.3
74427;BME280;62859;53.906;27.430;2023-04-07T22:56:08;1015.5;;;12.2;66.3
74427;BME280;62859;53.906;27.430;2023-04-07T23:01:34;1015.5;;;12.1;66.4
74427;BME280;62859;53.906;27.430;2023-04-07T23:06:42;1015.4;;;12.1;66.5
74427;BME280;62859;53.906;27.430;2023-04-07T23:11:34;1015.4;;;12;66.6
74427;BME280;62859;53.906;27.430;2023-04-07T23:16:09;1015.4;;;12;66.7
74427;BME280;62859;53.906;27.430;2023-04-07T23:21:08;1015.4;;;12;66.9
74427;BME280;62859;53.906;27.430;2023-04-07T23:26:34;1015.4;;;12;67
74427;BME280;62859;53.906;27.430;2023-04-07T23:31:42;1015.4;;;12;67.3
74427;BME280;62859;53.906;27.430;2023-04-07T23:36:34;1015.3;;;12;67
74427;BME280;62859;53.906;27.430;2023-04-07T23:40:58;1015.3;;;12;67
74427;BME280;62859;53.906;27.430;2023-04-07T23:46:08;1015.3;;;11.9;67.2
74427;BME280;62859;53.906;27.430;2023-04-07T23:51:34;1015.4;;;11.9;67.1
74427;BME280;62859;53.906;27.430;2023-04-07T23:56:42;1015.4;;;11.9;67.1
